sensor_id;sensor_type;location;lat;lon;timestamp;P1;durP1;ratioP1;P2;durP2;ratioP2
23376;SDS011;14353;46.070;13.222;2023-11-22T00:00:36;4.97;;;4.47;;
23376;SDS011;14353;46.070;13.222;2023-11-22T00:03:02;6.13;;;4.72;;
23376;SDS011;14353;46.070;13.222;2023-11-22T00:05:28;5.00;;;4.40;;
23376;SDS011;14353;46.070;13.222;2023-11-22T00:07:53;4.97;;;4.45;;
23376;SDS011;14353;46.070;13.222;2023-11-22T00:10:19;5.28;;;4.13;;
23376;SDS011;14353;46.070;13.222;2023-11-22T00:12:45;5.75;;;4.72;;
23376;SDS011;14353;46.070;13.222;2023-11-22T00:15:10;4.85;;;4.32;;
23376;SDS011;14353;46.070;13.222;2023-11-22T00:17:37;5.88;;;4.72;;
23376;SDS011;14353;46.070;13.222;2023-11-22T00:20:03;5.15;;;4.40;;
23376;SDS011;14353;46.070;13.222;2023-11-22T00:22:31;5.57;;;4.60;;
23376;SDS011;14353;46.070;13.222;2023-11-22T00:24:58;5.85;;;4.68;;
23376;SDS011;14353;46.070;13.222;2023-11-22T00:27:26;5.70;;;4.65;;
23376;SDS011;14353;46.070;13.222;2023-11-22T00:29:52;6.45;;;4.72;;
23376;SDS011;14353;46.070;13.222;2023-11-22T00:32:18;5.90;;;4.82;;
23376;SDS011;14353;46.070;13.222;2023-11-22T00:34:44;5.18;;;4.40;;
23376;SDS011;14353;46.070;13.222;2023-11-22T00:37:10;7.45;;;4.30;;
23376;SDS011;14353;46.070;13.222;2023-11-22T00:39:36;4.60;;;4.10;;
23376;SDS011;14353;46.070;13.222;2023-11-22T00:42:02;5.63;;;4.65;;
23376;SDS011;14353;46.070;13.222;2023-11-22T00:44:29;6.50;;;4.97;;
23376;SDS011;14353;46.070;13.222;2023-11-22T00:46:55;6.05;;;4.65;;
23376;SDS011;14353;46.070;13.222;2023-11-22T00:49:22;5.55;;;4.70;;
23376;SDS011;14353;46.070;13.222;2023-11-22T00:51:48;6.10;;;4.90;;
23376;SDS011;14353;46.070;13.222;2023-11-22T00:54:15;5.70;;;4.78;;
23376;SDS011;14353;46.070;13.222;2023-11-22T00:56:47;5.47;;;4.82;;
23376;SDS011;14353;46.070;13.222;2023-11-22T00:59:13;5.68;;;4.65;;
23376;SDS011;14353;46.070;13.222;2023-11-22T01:01:39;5.35;;;4.43;;
23376;SDS011;14353;46.070;13.222;2023-11-22T01:04:06;6.00;;;4.70;;
23376;SDS011;14353;46.070;13.222;2023-11-22T01:06:32;5.72;;;4.75;;
23376;SDS011;14353;46.070;13.222;2023-11-22T01:08:58;6.43;;;4.80;;
23376;SDS011;14353;46.070;13.222;2023-11-22T01:11:24;5.13;;;4.60;;
23376;SDS011;14353;46.070;13.222;2023-11-22T01:13:50;6.00;;;5.10;;
23376;SDS011;14353;46.070;13.222;2023-11-22T01:16:15;6.35;;;5.00;;
23376;SDS011;14353;46.070;13.222;2023-11-22T01:18:42;5.47;;;4.47;;
23376;SDS011;14353;46.070;13.222;2023-11-22T01:21:08;5.60;;;4.70;;
23376;SDS011;14353;46.070;13.222;2023-11-22T01:23:34;4.88;;;4.28;;
23376;SDS011;14353;46.070;13.222;2023-11-22T01:26:00;5.90;;;5.00;;
23376;SDS011;14353;46.070;13.222;2023-11-22T01:28:28;6.18;;;4.75;;
23376;SDS011;14353;46.070;13.222;2023-11-22T01:30:54;5.63;;;4.35;;
23376;SDS011;14353;46.070;13.222;2023-11-22T01:33:23;5.70;;;4.93;;
23376;SDS011;14353;46.070;13.222;2023-11-22T01:35:49;5.53;;;4.57;;
23376;SDS011;14353;46.070;13.222;2023-11-22T01:38:15;6.15;;;4.50;;
23376;SDS011;14353;46.070;13.222;2023-11-22T01:40:44;6.70;;;4.75;;
23376;SDS011;14353;46.070;13.222;2023-11-22T01:43:17;6.05;;;4.63;;
23376;SDS011;14353;46.070;13.222;2023-11-22T01:45:43;6.20;;;4.40;;
23376;SDS011;14353;46.070;13.222;2023-11-22T01:48:10;6.28;;;4.88;;
23376;SDS011;14353;46.070;13.222;2023-11-22T01:50:37;5.78;;;4.70;;
23376;SDS011;14353;46.070;13.222;2023-11-22T01:53:06;5.93;;;4.55;;
23376;SDS011;14353;46.070;13.222;2023-11-22T01:55:34;5.63;;;4.60;;
23376;SDS011;14353;46.070;13.222;2023-11-22T01:58:00;5.95;;;4.90;;
23376;SDS011;14353;46.070;13.222;2023-11-22T02:00:27;5.30;;;4.50;;
23376;SDS011;14353;46.070;13.222;2023-11-22T02:03:00;5.63;;;4.72;;
23376;SDS011;14353;46.070;13.222;2023-11-22T02:05:26;6.03;;;4.45;;
23376;SDS011;14353;46.070;13.222;2023-11-22T02:07:52;5.45;;;4.70;;
23376;SDS011;14353;46.070;13.222;2023-11-22T02:10:18;5.50;;;4.35;;
23376;SDS011;14353;46.070;13.222;2023-11-22T02:12:44;6.07;;;4.38;;
23376;SDS011;14353;46.070;13.222;2023-11-22T02:15:09;5.97;;;4.75;;
23376;SDS011;14353;46.070;13.222;2023-11-22T02:17:36;5.97;;;4.80;;
23376;SDS011;14353;46.070;13.222;2023-11-22T02:20:02;5.20;;;4.68;;
23376;SDS011;14353;46.070;13.222;2023-11-22T02:22:31;5.22;;;4.63;;
23376;SDS011;14353;46.070;13.222;2023-11-22T02:24:57;5.45;;;4.30;;
23376;SDS011;14353;46.070;13.222;2023-11-22T02:27:23;5.40;;;4.63;;
23376;SDS011;14353;46.070;13.222;2023-11-22T02:29:48;5.43;;;4.45;;
23376;SDS011;14353;46.070;13.222;2023-11-22T02:32:15;4.80;;;4.25;;
23376;SDS011;14353;46.070;13.222;2023-11-22T02:34:41;5.95;;;4.68;;
23376;SDS011;14353;46.070;13.222;2023-11-22T02:37:06;5.93;;;4.50;;
23376;SDS011;14353;46.070;13.222;2023-11-22T02:39:37;5.15;;;4.40;;
23376;SDS011;14353;46.070;13.222;2023-11-22T02:42:13;5.78;;;4.40;;
23376;SDS011;14353;46.070;13.222;2023-11-22T02:44:39;5.22;;;4.57;;
23376;SDS011;14353;46.070;13.222;2023-11-22T02:47:07;4.68;;;4.18;;
23376;SDS011;14353;46.070;13.222;2023-11-22T02:49:35;5.38;;;4.38;;
23376;SDS011;14353;46.070;13.222;2023-11-22T02:52:01;6.00;;;4.60;;
23376;SDS011;14353;46.070;13.222;2023-11-22T02:54:26;4.82;;;3.83;;
23376;SDS011;14353;46.070;13.222;2023-11-22T02:56:52;5.07;;;4.53;;
23376;SDS011;14353;46.070;13.222;2023-11-22T02:59:18;4.65;;;4.13;;
23376;SDS011;14353;46.070;13.222;2023-11-22T03:01:44;4.90;;;4.40;;
23376;SDS011;14353;46.070;13.222;2023-11-22T03:04:11;5.13;;;4.45;;
23376;SDS011;14353;46.070;13.222;2023-11-22T03:06:36;5.15;;;4.50;;
23376;SDS011;14353;46.070;13.222;2023-11-22T03:09:02;7.25;;;4.30;;
23376;SDS011;14353;46.070;13.222;2023-11-22T03:11:29;4.72;;;4.00;;
23376;SDS011;14353;46.070;13.222;2023-11-22T03:13:55;5.32;;;4.55;;
23376;SDS011;14353;46.070;13.222;2023-11-22T03:16:20;5.95;;;4.20;;
23376;SDS011;14353;46.070;13.222;2023-11-22T03:18:46;4.95;;;4.10;;
23376;SDS011;14353;46.070;13.222;2023-11-22T03:21:15;4.80;;;4.00;;
23376;SDS011;14353;46.070;13.222;2023-11-22T03:23:42;4.75;;;4.20;;
23376;SDS011;14353;46.070;13.222;2023-11-22T03:26:08;4.95;;;4.00;;
23376;SDS011;14353;46.070;13.222;2023-11-22T03:28:34;5.35;;;4.28;;
23376;SDS011;14353;46.070;13.222;2023-11-22T03:31:00;5.80;;;4.60;;
23376;SDS011;14353;46.070;13.222;2023-11-22T03:33:28;4.90;;;4.15;;
23376;SDS011;14353;46.070;13.222;2023-11-22T03:35:53;4.65;;;3.95;;
23376;SDS011;14353;46.070;13.222;2023-11-22T03:38:19;4.63;;;4.10;;
23376;SDS011;14353;46.070;13.222;2023-11-22T03:40:46;4.70;;;3.92;;
23376;SDS011;14353;46.070;13.222;2023-11-22T03:43:12;4.53;;;3.67;;
23376;SDS011;14353;46.070;13.222;2023-11-22T03:45:38;5.07;;;4.20;;
23376;SDS011;14353;46.070;13.222;2023-11-22T03:48:05;5.25;;;4.18;;
23376;SDS011;14353;46.070;13.222;2023-11-22T03:50:30;5.13;;;3.95;;
23376;SDS011;14353;46.070;13.222;2023-11-22T03:52:56;4.50;;;3.92;;
23376;SDS011;14353;46.070;13.222;2023-11-22T03:55:22;4.88;;;3.95;;
23376;SDS011;14353;46.070;13.222;2023-11-22T03:57:48;4.40;;;3.70;;
23376;SDS011;14353;46.070;13.222;2023-11-22T04:00:13;4.60;;;3.80;;
23376;SDS011;14353;46.070;13.222;2023-11-22T04:02:39;4.53;;;3.78;;
23376;SDS011;14353;46.070;13.222;2023-11-22T04:05:06;4.05;;;3.65;;
23376;SDS011;14353;46.070;13.222;2023-11-22T04:07:32;5.13;;;3.85;;
23376;SDS011;14353;46.070;13.222;2023-11-22T04:09:58;4.95;;;3.88;;
23376;SDS011;14353;46.070;13.222;2023-11-22T04:12:24;4.90;;;3.72;;
23376;SDS011;14353;46.070;13.222;2023-11-22T04:14:50;3.78;;;3.38;;
23376;SDS011;14353;46.070;13.222;2023-11-22T04:17:16;5.10;;;4.05;;
23376;SDS011;14353;46.070;13.222;2023-11-22T04:19:43;3.95;;;3.55;;
23376;SDS011;14353;46.070;13.222;2023-11-22T04:22:09;4.10;;;3.70;;
23376;SDS011;14353;46.070;13.222;2023-11-22T04:24:35;5.28;;;4.18;;
23376;SDS011;14353;46.070;13.222;2023-11-22T04:27:01;4.82;;;3.90;;
23376;SDS011;14353;46.070;13.222;2023-11-22T04:29:27;4.55;;;3.85;;
23376;SDS011;14353;46.070;13.222;2023-11-22T04:31:53;4.53;;;3.65;;
23376;SDS011;14353;46.070;13.222;2023-11-22T04:34:19;4.35;;;3.35;;
23376;SDS011;14353;46.070;13.222;2023-11-22T04:36:45;3.95;;;3.50;;
23376;SDS011;14353;46.070;13.222;2023-11-22T04:39:11;4.22;;;3.83;;
23376;SDS011;14353;46.070;13.222;2023-11-22T04:41:38;4.15;;;3.58;;
23376;SDS011;14353;46.070;13.222;2023-11-22T04:44:04;4.85;;;3.80;;
23376;SDS011;14353;46.070;13.222;2023-11-22T04:46:30;4.22;;;3.65;;
23376;SDS011;14353;46.070;13.222;2023-11-22T04:48:56;4.60;;;3.60;;
23376;SDS011;14353;46.070;13.222;2023-11-22T04:51:22;4.68;;;3.55;;
23376;SDS011;14353;46.070;13.222;2023-11-22T04:53:49;4.78;;;3.85;;
23376;SDS011;14353;46.070;13.222;2023-11-22T04:56:16;4.50;;;3.70;;
23376;SDS011;14353;46.070;13.222;2023-11-22T04:58:42;4.32;;;3.25;;
23376;SDS011;14353;46.070;13.222;2023-11-22T05:01:08;4.70;;;3.50;;
23376;SDS011;14353;46.070;13.222;2023-11-22T05:03:34;4.07;;;3.40;;
23376;SDS011;14353;46.070;13.222;2023-11-22T05:06:00;4.05;;;3.28;;
23376;SDS011;14353;46.070;13.222;2023-11-22T05:08:26;4.35;;;3.63;;
23376;SDS011;14353;46.070;13.222;2023-11-22T05:10:52;4.47;;;3.70;;
23376;SDS011;14353;46.070;13.222;2023-11-22T05:13:18;4.10;;;3.65;;
23376;SDS011;14353;46.070;13.222;2023-11-22T05:15:43;4.03;;;3.50;;
23376;SDS011;14353;46.070;13.222;2023-11-22T05:18:12;4.93;;;3.67;;
23376;SDS011;14353;46.070;13.222;2023-11-22T05:20:38;4.20;;;3.78;;
23376;SDS011;14353;46.070;13.222;2023-11-22T05:23:03;3.78;;;3.30;;
23376;SDS011;14353;46.070;13.222;2023-11-22T05:25:29;6.53;;;3.80;;
23376;SDS011;14353;46.070;13.222;2023-11-22T05:27:55;4.38;;;3.45;;
23376;SDS011;14353;46.070;13.222;2023-11-22T05:30:21;4.53;;;3.53;;
23376;SDS011;14353;46.070;13.222;2023-11-22T05:32:47;4.05;;;3.40;;
23376;SDS011;14353;46.070;13.222;2023-11-22T05:35:14;3.95;;;3.25;;
23376;SDS011;14353;46.070;13.222;2023-11-22T05:37:39;3.92;;;3.17;;
23376;SDS011;14353;46.070;13.222;2023-11-22T05:40:05;4.00;;;3.38;;
23376;SDS011;14353;46.070;13.222;2023-11-22T05:42:34;3.63;;;3.25;;
23376;SDS011;14353;46.070;13.222;2023-11-22T05:45:00;4.30;;;3.70;;
23376;SDS011;14353;46.070;13.222;2023-11-22T05:47:26;4.28;;;3.53;;
23376;SDS011;14353;46.070;13.222;2023-11-22T05:49:52;5.28;;;3.90;;
23376;SDS011;14353;46.070;13.222;2023-11-22T05:52:18;4.00;;;3.35;;
23376;SDS011;14353;46.070;13.222;2023-11-22T05:54:45;4.60;;;3.67;;
23376;SDS011;14353;46.070;13.222;2023-11-22T05:57:12;3.70;;;3.30;;
23376;SDS011;14353;46.070;13.222;2023-11-22T05:59:37;4.20;;;3.58;;
23376;SDS011;14353;46.070;13.222;2023-11-22T06:02:03;3.80;;;3.25;;
23376;SDS011;14353;46.070;13.222;2023-11-22T06:04:29;3.45;;;3.05;;
23376;SDS011;14353;46.070;13.222;2023-11-22T06:06:55;7.88;;;3.55;;
23376;SDS011;14353;46.070;13.222;2023-11-22T06:09:21;3.70;;;3.30;;
23376;SDS011;14353;46.070;13.222;2023-11-22T06:11:48;3.97;;;3.20;;
23376;SDS011;14353;46.070;13.222;2023-11-22T06:14:14;4.57;;;3.17;;
23376;SDS011;14353;46.070;13.222;2023-11-22T06:16:39;6.88;;;3.45;;
23376;SDS011;14353;46.070;13.222;2023-11-22T06:19:05;4.45;;;3.10;;
23376;SDS011;14353;46.070;13.222;2023-11-22T06:21:32;4.65;;;3.53;;
23376;SDS011;14353;46.070;13.222;2023-11-22T06:23:59;4.30;;;3.53;;
23376;SDS011;14353;46.070;13.222;2023-11-22T06:26:24;4.20;;;3.42;;
23376;SDS011;14353;46.070;13.222;2023-11-22T06:28:50;3.83;;;3.20;;
23376;SDS011;14353;46.070;13.222;2023-11-22T06:31:16;3.88;;;3.35;;
23376;SDS011;14353;46.070;13.222;2023-11-22T06:33:42;3.10;;;2.80;;
23376;SDS011;14353;46.070;13.222;2023-11-22T06:36:08;4.63;;;3.15;;
23376;SDS011;14353;46.070;13.222;2023-11-22T06:38:36;3.72;;;3.20;;
23376;SDS011;14353;46.070;13.222;2023-11-22T06:41:02;4.55;;;3.45;;
23376;SDS011;14353;46.070;13.222;2023-11-22T06:43:27;4.28;;;3.30;;
23376;SDS011;14353;46.070;13.222;2023-11-22T06:45:53;4.78;;;3.30;;
23376;SDS011;14353;46.070;13.222;2023-11-22T06:48:19;3.47;;;3.13;;
23376;SDS011;14353;46.070;13.222;2023-11-22T06:50:44;3.67;;;3.22;;
23376;SDS011;14353;46.070;13.222;2023-11-22T06:53:10;3.45;;;3.13;;
23376;SDS011;14353;46.070;13.222;2023-11-22T06:55:36;4.07;;;3.13;;
23376;SDS011;14353;46.070;13.222;2023-11-22T06:58:03;3.65;;;2.97;;
23376;SDS011;14353;46.070;13.222;2023-11-22T07:00:31;4.47;;;3.47;;
23376;SDS011;14353;46.070;13.222;2023-11-22T07:02:58;6.20;;;3.40;;
23376;SDS011;14353;46.070;13.222;2023-11-22T07:05:23;3.78;;;3.22;;
23376;SDS011;14353;46.070;13.222;2023-11-22T07:07:49;3.35;;;2.97;;
23376;SDS011;14353;46.070;13.222;2023-11-22T07:10:15;3.10;;;2.80;;
23376;SDS011;14353;46.070;13.222;2023-11-22T07:12:41;3.85;;;3.17;;
23376;SDS011;14353;46.070;13.222;2023-11-22T07:15:08;3.85;;;3.05;;
23376;SDS011;14353;46.070;13.222;2023-11-22T07:17:35;4.22;;;3.15;;
23376;SDS011;14353;46.070;13.222;2023-11-22T07:20:01;3.65;;;2.95;;
23376;SDS011;14353;46.070;13.222;2023-11-22T07:22:27;3.88;;;3.42;;
23376;SDS011;14353;46.070;13.222;2023-11-22T07:24:55;3.45;;;2.83;;
23376;SDS011;14353;46.070;13.222;2023-11-22T07:27:24;3.65;;;3.13;;
23376;SDS011;14353;46.070;13.222;2023-11-22T07:29:51;3.40;;;2.97;;
23376;SDS011;14353;46.070;13.222;2023-11-22T07:32:17;3.20;;;2.80;;
23376;SDS011;14353;46.070;13.222;2023-11-22T07:34:45;3.65;;;3.00;;
23376;SDS011;14353;46.070;13.222;2023-11-22T07:37:11;3.55;;;3.00;;
23376;SDS011;14353;46.070;13.222;2023-11-22T07:39:38;3.83;;;2.92;;
23376;SDS011;14353;46.070;13.222;2023-11-22T07:42:05;3.72;;;2.80;;
23376;SDS011;14353;46.070;13.222;2023-11-22T07:44:34;4.22;;;3.13;;
23376;SDS011;14353;46.070;13.222;2023-11-22T07:47:02;3.67;;;3.05;;
23376;SDS011;14353;46.070;13.222;2023-11-22T07:49:32;3.78;;;2.80;;
23376;SDS011;14353;46.070;13.222;2023-11-22T07:52:01;4.13;;;3.15;;
23376;SDS011;14353;46.070;13.222;2023-11-22T07:54:27;3.67;;;3.28;;
23376;SDS011;14353;46.070;13.222;2023-11-22T07:56:55;3.88;;;3.00;;
23376;SDS011;14353;46.070;13.222;2023-11-22T07:59:21;4.82;;;2.78;;
23376;SDS011;14353;46.070;13.222;2023-11-22T08:01:46;4.18;;;2.88;;
23376;SDS011;14353;46.070;13.222;2023-11-22T08:04:16;3.88;;;3.08;;
23376;SDS011;14353;46.070;13.222;2023-11-22T08:06:43;4.38;;;3.13;;
23376;SDS011;14353;46.070;13.222;2023-11-22T08:09:09;6.47;;;3.25;;
23376;SDS011;14353;46.070;13.222;2023-11-22T08:11:35;5.63;;;3.47;;
23376;SDS011;14353;46.070;13.222;2023-11-22T08:14:04;6.88;;;3.72;;
23376;SDS011;14353;46.070;13.222;2023-11-22T08:16:30;11.30;;;5.00;;
23376;SDS011;14353;46.070;13.222;2023-11-22T08:18:57;10.75;;;5.00;;
23376;SDS011;14353;46.070;13.222;2023-11-22T08:21:23;11.73;;;5.30;;
23376;SDS011;14353;46.070;13.222;2023-11-22T08:23:49;9.70;;;5.28;;
23376;SDS011;14353;46.070;13.222;2023-11-22T08:26:15;15.32;;;5.78;;
23376;SDS011;14353;46.070;13.222;2023-11-22T08:28:41;11.93;;;5.65;;
23376;SDS011;14353;46.070;13.222;2023-11-22T08:31:07;9.70;;;5.40;;
23376;SDS011;14353;46.070;13.222;2023-11-22T08:33:34;10.57;;;5.40;;
23376;SDS011;14353;46.070;13.222;2023-11-22T08:36:00;12.02;;;5.20;;
23376;SDS011;14353;46.070;13.222;2023-11-22T08:38:27;10.45;;;5.35;;
23376;SDS011;14353;46.070;13.222;2023-11-22T08:40:53;12.07;;;5.90;;
23376;SDS011;14353;46.070;13.222;2023-11-22T08:43:20;10.73;;;5.07;;
23376;SDS011;14353;46.070;13.222;2023-11-22T08:45:51;8.23;;;5.10;;
23376;SDS011;14353;46.070;13.222;2023-11-22T08:48:17;19.00;;;6.55;;
23376;SDS011;14353;46.070;13.222;2023-11-22T08:50:43;15.88;;;5.32;;
23376;SDS011;14353;46.070;13.222;2023-11-22T08:53:13;9.85;;;4.85;;
23376;SDS011;14353;46.070;13.222;2023-11-22T08:55:43;9.77;;;5.05;;
23376;SDS011;14353;46.070;13.222;2023-11-22T08:58:12;11.10;;;5.10;;
23376;SDS011;14353;46.070;13.222;2023-11-22T09:00:39;12.80;;;5.40;;
23376;SDS011;14353;46.070;13.222;2023-11-22T09:03:06;15.95;;;4.72;;
23376;SDS011;14353;46.070;13.222;2023-11-22T09:05:34;8.93;;;4.63;;
23376;SDS011;14353;46.070;13.222;2023-11-22T09:08:01;9.02;;;5.00;;
23376;SDS011;14353;46.070;13.222;2023-11-22T09:10:29;8.48;;;4.65;;
23376;SDS011;14353;46.070;13.222;2023-11-22T09:12:55;10.90;;;4.97;;
23376;SDS011;14353;46.070;13.222;2023-11-22T09:15:24;9.80;;;4.93;;
23376;SDS011;14353;46.070;13.222;2023-11-22T09:17:51;10.32;;;4.93;;
23376;SDS011;14353;46.070;13.222;2023-11-22T09:20:18;9.63;;;5.00;;
23376;SDS011;14353;46.070;13.222;2023-11-22T09:22:46;9.40;;;4.68;;
23376;SDS011;14353;46.070;13.222;2023-11-22T09:25:20;8.88;;;4.57;;
23376;SDS011;14353;46.070;13.222;2023-11-22T09:27:48;10.20;;;4.80;;
23376;SDS011;14353;46.070;13.222;2023-11-22T09:30:19;9.52;;;4.57;;
23376;SDS011;14353;46.070;13.222;2023-11-22T09:33:00;9.98;;;4.95;;
23376;SDS011;14353;46.070;13.222;2023-11-22T09:35:44;12.05;;;4.97;;
23376;SDS011;14353;46.070;13.222;2023-11-22T09:38:12;11.90;;;5.03;;
23376;SDS011;14353;46.070;13.222;2023-11-22T09:43:08;7.45;;;4.55;;
23376;SDS011;14353;46.070;13.222;2023-11-22T09:45:35;10.95;;;5.00;;
23376;SDS011;14353;46.070;13.222;2023-11-22T09:48:03;9.07;;;5.10;;
23376;SDS011;14353;46.070;13.222;2023-11-22T09:50:43;11.07;;;5.15;;
23376;SDS011;14353;46.070;13.222;2023-11-22T09:53:41;11.10;;;4.50;;
23376;SDS011;14353;46.070;13.222;2023-11-22T09:56:25;7.68;;;4.88;;
23376;SDS011;14353;46.070;13.222;2023-11-22T09:58:53;8.52;;;4.82;;
23376;SDS011;14353;46.070;13.222;2023-11-22T10:01:23;7.55;;;4.93;;
23376;SDS011;14353;46.070;13.222;2023-11-22T10:03:49;13.35;;;4.80;;
23376;SDS011;14353;46.070;13.222;2023-11-22T10:06:16;9.85;;;4.90;;
23376;SDS011;14353;46.070;13.222;2023-11-22T10:08:43;9.23;;;4.85;;
23376;SDS011;14353;46.070;13.222;2023-11-22T10:11:11;9.13;;;4.53;;
23376;SDS011;14353;46.070;13.222;2023-11-22T10:13:49;8.50;;;4.70;;
23376;SDS011;14353;46.070;13.222;2023-11-22T10:16:16;8.35;;;4.40;;
23376;SDS011;14353;46.070;13.222;2023-11-22T10:18:44;7.45;;;4.47;;
23376;SDS011;14353;46.070;13.222;2023-11-22T10:21:21;9.10;;;4.30;;
23376;SDS011;14353;46.070;13.222;2023-11-22T10:23:49;8.27;;;4.63;;
23376;SDS011;14353;46.070;13.222;2023-11-22T10:26:21;6.50;;;4.10;;
23376;SDS011;14353;46.070;13.222;2023-11-22T10:29:00;9.23;;;4.63;;
23376;SDS011;14353;46.070;13.222;2023-11-22T10:31:29;8.95;;;4.30;;
23376;SDS011;14353;46.070;13.222;2023-11-22T10:33:55;11.00;;;4.80;;
23376;SDS011;14353;46.070;13.222;2023-11-22T10:36:22;8.15;;;4.15;;
23376;SDS011;14353;46.070;13.222;2023-11-22T10:38:48;7.32;;;4.22;;
23376;SDS011;14353;46.070;13.222;2023-11-22T10:41:16;8.07;;;4.32;;
23376;SDS011;14353;46.070;13.222;2023-11-22T10:43:42;9.60;;;4.32;;
23376;SDS011;14353;46.070;13.222;2023-11-22T10:46:09;10.38;;;4.15;;
23376;SDS011;14353;46.070;13.222;2023-11-22T10:48:38;10.38;;;4.22;;
23376;SDS011;14353;46.070;13.222;2023-11-22T10:51:04;9.35;;;4.03;;
23376;SDS011;14353;46.070;13.222;2023-11-22T10:55:59;7.95;;;4.13;;
23376;SDS011;14353;46.070;13.222;2023-11-22T11:01:14;8.13;;;4.07;;
23376;SDS011;14353;46.070;13.222;2023-11-22T11:06:51;6.13;;;3.85;;
23376;SDS011;14353;46.070;13.222;2023-11-22T11:09:21;6.38;;;4.10;;
23376;SDS011;14353;46.070;13.222;2023-11-22T11:11:51;7.43;;;4.13;;
23376;SDS011;14353;46.070;13.222;2023-11-22T11:14:17;6.18;;;4.05;;
23376;SDS011;14353;46.070;13.222;2023-11-22T11:16:43;6.53;;;3.80;;
23376;SDS011;14353;46.070;13.222;2023-11-22T11:19:15;5.97;;;3.55;;
23376;SDS011;14353;46.070;13.222;2023-11-22T11:21:47;7.43;;;4.25;;
23376;SDS011;14353;46.070;13.222;2023-11-22T11:24:13;6.93;;;4.10;;
23376;SDS011;14353;46.070;13.222;2023-11-22T11:26:39;5.93;;;3.58;;
23376;SDS011;14353;46.070;13.222;2023-11-22T11:29:05;5.53;;;3.60;;
23376;SDS011;14353;46.070;13.222;2023-11-22T11:31:33;7.47;;;3.55;;
23376;SDS011;14353;46.070;13.222;2023-11-22T11:34:07;4.70;;;3.45;;
23376;SDS011;14353;46.070;13.222;2023-11-22T11:36:33;5.78;;;3.45;;
23376;SDS011;14353;46.070;13.222;2023-11-22T11:38:59;5.97;;;3.50;;
23376;SDS011;14353;46.070;13.222;2023-11-22T11:41:30;6.82;;;3.63;;
23376;SDS011;14353;46.070;13.222;2023-11-22T11:44:02;4.97;;;3.50;;
23376;SDS011;14353;46.070;13.222;2023-11-22T11:46:29;7.72;;;3.90;;
23376;SDS011;14353;46.070;13.222;2023-11-22T11:48:56;6.28;;;4.00;;
23376;SDS011;14353;46.070;13.222;2023-11-22T11:51:25;5.00;;;3.28;;
23376;SDS011;14353;46.070;13.222;2023-11-22T11:53:53;6.07;;;3.28;;
23376;SDS011;14353;46.070;13.222;2023-11-22T11:56:20;6.50;;;3.65;;
23376;SDS011;14353;46.070;13.222;2023-11-22T11:58:46;6.13;;;3.85;;
23376;SDS011;14353;46.070;13.222;2023-11-22T12:01:16;6.00;;;3.70;;
23376;SDS011;14353;46.070;13.222;2023-11-22T12:03:45;5.18;;;3.30;;
23376;SDS011;14353;46.070;13.222;2023-11-22T12:06:14;5.50;;;3.55;;
23376;SDS011;14353;46.070;13.222;2023-11-22T12:08:41;3.58;;;2.78;;
23376;SDS011;14353;46.070;13.222;2023-11-22T12:11:07;5.22;;;2.83;;
23376;SDS011;14353;46.070;13.222;2023-11-22T12:13:33;4.60;;;3.08;;
23376;SDS011;14353;46.070;13.222;2023-11-22T12:16:03;4.68;;;3.08;;
23376;SDS011;14353;46.070;13.222;2023-11-22T12:18:38;5.38;;;2.47;;
23376;SDS011;14353;46.070;13.222;2023-11-22T12:21:06;4.25;;;1.77;;
23376;SDS011;14353;46.070;13.222;2023-11-22T12:23:32;5.35;;;1.88;;
23376;SDS011;14353;46.070;13.222;2023-11-22T12:25:59;4.13;;;1.77;;
23376;SDS011;14353;46.070;13.222;2023-11-22T12:28:27;4.28;;;1.55;;
23376;SDS011;14353;46.070;13.222;2023-11-22T12:30:54;3.83;;;1.38;;
23376;SDS011;14353;46.070;13.222;2023-11-22T12:33:20;5.38;;;1.40;;
23376;SDS011;14353;46.070;13.222;2023-11-22T12:35:46;3.70;;;1.42;;
23376;SDS011;14353;46.070;13.222;2023-11-22T12:38:15;5.35;;;1.50;;
23376;SDS011;14353;46.070;13.222;2023-11-22T12:40:45;4.57;;;1.55;;
23376;SDS011;14353;46.070;13.222;2023-11-22T12:43:14;5.88;;;1.50;;
23376;SDS011;14353;46.070;13.222;2023-11-22T12:45:40;6.22;;;1.67;;
23376;SDS011;14353;46.070;13.222;2023-11-22T12:48:22;5.38;;;1.38;;
23376;SDS011;14353;46.070;13.222;2023-11-22T12:50:49;5.88;;;1.58;;
23376;SDS011;14353;46.070;13.222;2023-11-22T12:53:16;4.07;;;1.38;;
23376;SDS011;14353;46.070;13.222;2023-11-22T12:55:45;3.63;;;1.35;;
23376;SDS011;14353;46.070;13.222;2023-11-22T12:58:21;3.80;;;1.37;;
23376;SDS011;14353;46.070;13.222;2023-11-22T13:00:49;5.47;;;1.52;;
23376;SDS011;14353;46.070;13.222;2023-11-22T13:03:15;6.03;;;1.60;;
23376;SDS011;14353;46.070;13.222;2023-11-22T13:05:42;2.83;;;1.45;;
23376;SDS011;14353;46.070;13.222;2023-11-22T13:08:09;4.07;;;1.33;;
23376;SDS011;14353;46.070;13.222;2023-11-22T13:10:39;5.45;;;1.50;;
23376;SDS011;14353;46.070;13.222;2023-11-22T13:13:05;3.63;;;1.40;;
23376;SDS011;14353;46.070;13.222;2023-11-22T13:15:34;5.93;;;1.20;;
23376;SDS011;14353;46.070;13.222;2023-11-22T13:18:00;5.65;;;1.10;;
23376;SDS011;14353;46.070;13.222;2023-11-22T13:20:26;3.55;;;1.20;;
23376;SDS011;14353;46.070;13.222;2023-11-22T13:22:53;2.92;;;1.50;;
23376;SDS011;14353;46.070;13.222;2023-11-22T13:25:20;3.10;;;1.05;;
23376;SDS011;14353;46.070;13.222;2023-11-22T13:27:49;3.80;;;1.33;;
23376;SDS011;14353;46.070;13.222;2023-11-22T13:30:17;2.95;;;1.25;;
23376;SDS011;14353;46.070;13.222;2023-11-22T13:32:54;1.75;;;1.20;;
23376;SDS011;14353;46.070;13.222;2023-11-22T13:35:24;3.75;;;1.10;;
23376;SDS011;14353;46.070;13.222;2023-11-22T13:37:52;2.35;;;1.30;;
23376;SDS011;14353;46.070;13.222;2023-11-22T13:40:19;4.40;;;1.25;;
23376;SDS011;14353;46.070;13.222;2023-11-22T13:42:48;2.72;;;1.23;;
23376;SDS011;14353;46.070;13.222;2023-11-22T13:45:17;3.72;;;1.30;;
23376;SDS011;14353;46.070;13.222;2023-11-22T13:47:43;1.85;;;1.20;;
23376;SDS011;14353;46.070;13.222;2023-11-22T13:50:10;3.90;;;1.30;;
23376;SDS011;14353;46.070;13.222;2023-11-22T13:52:39;2.58;;;1.00;;
23376;SDS011;14353;46.070;13.222;2023-11-22T13:55:05;2.50;;;1.20;;
23376;SDS011;14353;46.070;13.222;2023-11-22T13:57:35;2.15;;;1.20;;
23376;SDS011;14353;46.070;13.222;2023-11-22T14:00:03;2.53;;;1.30;;
23376;SDS011;14353;46.070;13.222;2023-11-22T14:02:34;3.03;;;1.10;;
23376;SDS011;14353;46.070;13.222;2023-11-22T14:05:01;2.47;;;1.23;;
23376;SDS011;14353;46.070;13.222;2023-11-22T14:07:28;2.45;;;1.30;;
23376;SDS011;14353;46.070;13.222;2023-11-22T14:09:54;2.30;;;1.30;;
23376;SDS011;14353;46.070;13.222;2023-11-22T14:12:20;4.25;;;1.30;;
23376;SDS011;14353;46.070;13.222;2023-11-22T14:14:46;1.92;;;1.10;;
23376;SDS011;14353;46.070;13.222;2023-11-22T14:17:11;2.40;;;1.30;;
23376;SDS011;14353;46.070;13.222;2023-11-22T14:19:39;2.50;;;1.00;;
23376;SDS011;14353;46.070;13.222;2023-11-22T14:22:05;2.30;;;1.00;;
23376;SDS011;14353;46.070;13.222;2023-11-22T14:24:31;1.92;;;1.08;;
23376;SDS011;14353;46.070;13.222;2023-11-22T14:27:02;2.53;;;1.02;;
23376;SDS011;14353;46.070;13.222;2023-11-22T14:29:28;2.88;;;1.30;;
23376;SDS011;14353;46.070;13.222;2023-11-22T14:31:53;1.95;;;1.05;;
23376;SDS011;14353;46.070;13.222;2023-11-22T14:34:19;3.17;;;1.20;;
23376;SDS011;14353;46.070;13.222;2023-11-22T14:36:45;1.38;;;1.00;;
23376;SDS011;14353;46.070;13.222;2023-11-22T14:39:11;2.05;;;1.20;;
23376;SDS011;14353;46.070;13.222;2023-11-22T14:41:39;1.83;;;1.00;;
23376;SDS011;14353;46.070;13.222;2023-11-22T14:44:05;3.10;;;1.30;;